createdAt,value
2023-08-04T00:01:24.233Z,99427.34
2023-08-04T00:04:27.129Z,99420.16
2023-08-04T00:07:29.604Z,99421.81
2023-08-04T00:10:32.346Z,99414.50
2023-08-04T00:13:34.824Z,99425.88
2023-08-04T00:16:38.390Z,99409.06
2023-08-04T00:19:42.079Z,99400.94
2023-08-04T00:22:44.892Z,99378.28
2023-08-04T00:25:47.743Z,99376.09
2023-08-04T00:28:50.451Z,99392.84
2023-08-04T00:31:53.796Z,99441.66
2023-08-04T00:34:56.878Z,99552.09
2023-08-04T00:37:59.334Z,99577.84
2023-08-04T00:41:02.234Z,99525.25
2023-08-04T00:44:04.924Z,99533.25
2023-08-04T00:47:08.304Z,99511.88
2023-08-04T00:50:11.482Z,99484.03
2023-08-04T00:53:15.435Z,99487.72
2023-08-04T00:56:17.977Z,99481.25
2023-08-04T00:59:20.997Z,99477.13
2023-08-04T01:02:24.543Z,99479.53
2023-08-04T01:05:45.429Z,99471.22
2023-08-04T01:09:12.676Z,99446.41
2023-08-04T01:12:28.906Z,99417.50
2023-08-04T01:15:32.761Z,99425.22
2023-08-04T01:18:35.708Z,99447.88
2023-08-04T01:21:44.371Z,99455.09
2023-08-04T01:24:47.567Z,99437.50
2023-08-04T01:27:56.753Z,99419.91
2023-08-04T01:31:01.927Z,99414.69
2023-08-04T01:34:04.837Z,99441.09
2023-08-04T01:37:07.702Z,99420.50
2023-08-04T01:40:13.876Z,99392.38
2023-08-04T01:43:16.591Z,99399.78
2023-08-04T01:46:19.239Z,99437.84
2023-08-04T01:49:22.126Z,99488.97
2023-08-04T01:52:24.790Z,99481.50
2023-08-04T01:55:27.520Z,99492.50
2023-08-04T01:58:30.151Z,99504.28
2023-08-04T02:01:32.998Z,99484.56
2023-08-04T02:04:35.925Z,99467.97
2023-08-04T02:07:38.451Z,99458.16
2023-08-04T02:10:51.868Z,99460.78
2023-08-04T02:13:54.779Z,99460.25
2023-08-04T02:16:57.972Z,99438.50
2023-08-04T02:20:01.735Z,99437.41
2023-08-04T02:23:05.298Z,99427.91
2023-08-04T02:26:08.515Z,99444.75
2023-08-04T02:29:12.362Z,99432.16
2023-08-04T02:32:15.142Z,99451.31
2023-08-04T02:35:17.641Z,99460.41
2023-08-04T02:38:20.547Z,99463.25
2023-08-04T02:41:24.122Z,99447.28
2023-08-04T02:44:27.084Z,99433.91
2023-08-04T02:47:29.692Z,99422.28
2023-08-04T02:50:32.527Z,99420.16
2023-08-04T02:53:36.835Z,99401.47
2023-08-04T02:56:39.727Z,99409.69
2023-08-04T02:59:42.338Z,99451.50
2023-08-04T03:02:45.186Z,99448.25
2023-08-04T03:05:48.187Z,99432.44
2023-08-04T03:08:51.163Z,99459.72
2023-08-04T03:11:53.755Z,99492.56
2023-08-04T03:14:57.836Z,99530.13
2023-08-04T03:18:01.420Z,99520.28
2023-08-04T03:21:04.466Z,99521.53
2023-08-04T03:24:08.035Z,99523.72
2023-08-04T03:27:10.818Z,99519.84
2023-08-04T03:30:13.603Z,99510.53
2023-08-04T03:33:16.447Z,99502.28
2023-08-04T03:36:18.934Z,99470.38
2023-08-04T03:39:22.793Z,99463.03
2023-08-04T03:42:25.228Z,99471.09
2023-08-04T03:45:28.067Z,99467.13
2023-08-04T03:48:30.633Z,99464.22
2023-08-04T03:51:34.448Z,99462.84
2023-08-04T03:54:37.151Z,99470.13
2023-08-04T03:57:39.946Z,99468.78
2023-08-04T04:00:42.920Z,99481.97
2023-08-04T04:03:45.992Z,99483.34
2023-08-04T04:06:48.582Z,99488.78
2023-08-04T04:09:51.423Z,99517.75
2023-08-04T04:12:53.950Z,99567.13
2023-08-04T04:15:56.737Z,99571.66
2023-08-04T04:18:59.513Z,99567.34
2023-08-04T04:22:02.458Z,99535.28
2023-08-04T04:25:05.553Z,99540.16
2023-08-04T04:28:08.386Z,99539.94
2023-08-04T04:31:10.906Z,99574.47
2023-08-04T04:34:13.715Z,99570.22
2023-08-04T04:37:16.135Z,99561.84
2023-08-04T04:40:18.988Z,99563.59
2023-08-04T04:43:24.726Z,99551.28
2023-08-04T04:46:27.595Z,99553.47
2023-08-04T04:49:30.640Z,99542.59
2023-08-04T04:52:39.321Z,99520.47
2023-08-04T04:55:42.443Z,99515.56
2023-08-04T04:58:45.268Z,99515.06
2023-08-04T05:01:48.274Z,99504.03
2023-08-04T05:04:51.272Z,99504.66
2023-08-04T05:07:53.761Z,99502.09
2023-08-04T05:10:56.561Z,99501.53
2023-08-04T05:13:59.034Z,99491.50
2023-08-04T05:17:01.877Z,99491.84
2023-08-04T05:20:04.550Z,99487.34
2023-08-04T05:23:07.393Z,99495.84
2023-08-04T05:26:09.864Z,99499.06
2023-08-04T05:29:12.841Z,99494.72
2023-08-04T05:32:15.331Z,99501.34
2023-08-04T05:35:18.206Z,99501.19
2023-08-04T05:38:21.430Z,99510.94
2023-08-04T05:41:24.195Z,99506.78
2023-08-04T05:44:26.617Z,99498.78
2023-08-04T05:47:29.516Z,99486.78
2023-08-04T05:50:32.796Z,99484.66
2023-08-04T05:53:35.697Z,99486.97
2023-08-04T05:56:38.396Z,99483.66
2023-08-04T05:59:41.126Z,99483.34
2023-08-04T06:02:45.269Z,99482.91
2023-08-04T06:05:48.606Z,99483.84
2023-08-04T06:08:51.112Z,99489.63
2023-08-04T06:11:54.003Z,99496.91
2023-08-04T06:14:56.680Z,99491.88
2023-08-04T06:17:59.561Z,99492.84
2023-08-04T06:21:02.267Z,99488.44
2023-08-04T06:24:05.435Z,99491.28
2023-08-04T06:27:08.908Z,99500.09
2023-08-04T06:30:11.894Z,99496.16
2023-08-04T06:33:14.708Z,99495.66
2023-08-04T06:36:20.577Z,99494.84
2023-08-04T06:39:23.457Z,99483.19
2023-08-04T06:42:26.483Z,99493.06
2023-08-04T06:45:29.704Z,99498.34
2023-08-04T06:48:32.585Z,99502.75
2023-08-04T06:51:35.561Z,99511.34
2023-08-04T06:54:39.396Z,99515.97
2023-08-04T06:57:42.257Z,99511.75
2023-08-04T07:00:46.377Z,99516.56
2023-08-04T07:03:48.914Z,99515.31
2023-08-04T07:06:52.684Z,99519.31
2023-08-04T07:09:55.233Z,99528.66
2023-08-04T07:12:58.320Z,99538.06
2023-08-04T07:16:01.066Z,99529.41
2023-08-04T07:19:04.139Z,99530.38
2023-08-04T07:22:06.775Z,99530.44
2023-08-04T07:25:09.845Z,99543.09
2023-08-04T07:28:12.318Z,99536.97
2023-08-04T07:31:15.273Z,99536.72
2023-08-04T07:34:18.434Z,99534.72
2023-08-04T07:37:21.684Z,99525.44
2023-08-04T07:40:24.158Z,99533.59
2023-08-04T07:43:27.331Z,99537.56
2023-08-04T07:46:31.492Z,99537.91
2023-08-04T07:49:34.413Z,99544.28
2023-08-04T07:52:37.056Z,99553.66
2023-08-04T07:55:40.763Z,99562.53
2023-08-04T07:58:43.375Z,99551.75
2023-08-04T08:01:46.560Z,99563.47
2023-08-04T08:04:49.955Z,99556.00
2023-08-04T08:07:52.489Z,99556.69
2023-08-04T08:10:58.256Z,99557.75
2023-08-04T08:14:00.856Z,99564.69
2023-08-04T08:17:03.913Z,99557.44
2023-08-04T08:20:07.424Z,99547.50
2023-08-04T08:23:11.800Z,99550.31
2023-08-04T08:26:14.754Z,99553.50
2023-08-04T08:29:19.716Z,99560.41
2023-08-04T08:32:23.894Z,99557.38
2023-08-04T08:35:27.009Z,99554.66
2023-08-04T08:38:29.486Z,99552.41
2023-08-04T08:41:32.324Z,99555.88
2023-08-04T08:44:34.894Z,99556.75
2023-08-04T08:47:39.574Z,99554.41
2023-08-04T08:50:45.100Z,99546.00
2023-08-04T08:53:49.169Z,99551.06
2023-08-04T08:56:52.414Z,99550.81
2023-08-04T08:59:59.898Z,99540.75
2023-08-04T09:03:04.787Z,99534.50
2023-08-04T09:06:07.874Z,99533.31
2023-08-04T09:09:10.372Z,99539.88
2023-08-04T09:12:14.087Z,99540.84
2023-08-04T09:15:16.633Z,99547.59
2023-08-04T09:18:28.452Z,99550.34
2023-08-04T09:21:31.027Z,99551.19
2023-08-04T09:24:34.092Z,99551.06
2023-08-04T09:27:42.579Z,99559.72
2023-08-04T09:31:06.953Z,99561.69
2023-08-04T09:34:11.368Z,99555.69
2023-08-04T09:37:17.370Z,99553.22
2023-08-04T09:40:21.286Z,99536.37
2023-08-04T09:43:24.026Z,99533.38
2023-08-04T09:46:26.560Z,99523.91
2023-08-04T09:49:30.357Z,99526.31
2023-08-04T09:52:32.907Z,99525.91
2023-08-04T09:55:36.107Z,99529.06
2023-08-04T09:58:39.891Z,99529.13
2023-08-04T10:01:43.670Z,99517.59
2023-08-04T10:04:50.992Z,99517.66
2023-08-04T10:07:54.250Z,99516.69
2023-08-04T10:10:58.209Z,99503.94
2023-08-04T10:14:02.773Z,99508.13
2023-08-04T10:17:06.615Z,99497.87
2023-08-04T10:20:10.779Z,99495.12
2023-08-04T10:23:14.154Z,99499.81
2023-08-04T10:26:17.129Z,99498.16
2023-08-04T10:29:21.708Z,99486.81
2023-08-04T10:32:35.134Z,99490.44
2023-08-04T10:36:05.438Z,99497.34
2023-08-04T10:39:27.478Z,99501.34
2023-08-04T10:42:32.956Z,99503.84
2023-08-04T10:46:04.860Z,99511.09
2023-08-04T10:49:07.964Z,99506.37
2023-08-04T10:52:10.553Z,99507.81
2023-08-04T10:55:14.734Z,99495.03
2023-08-04T10:58:17.855Z,99494.66
2023-08-04T11:01:22.795Z,99492.31
2023-08-04T11:04:25.638Z,99498.81
2023-08-04T11:07:28.406Z,99492.50
2023-08-04T11:10:30.995Z,99498.91
2023-08-04T11:13:33.866Z,99492.00
2023-08-04T11:16:37.791Z,99499.03
2023-08-04T11:19:42.875Z,99488.50
2023-08-04T11:22:50.083Z,99494.75
2023-08-04T11:25:54.375Z,99501.88
2023-08-04T11:28:59.196Z,99503.56
2023-08-04T11:32:02.589Z,99492.53
2023-08-04T11:35:05.708Z,99489.84
2023-08-04T11:38:08.757Z,99483.66
2023-08-04T11:41:13.694Z,99491.50
2023-08-04T11:44:17.500Z,99487.62
2023-08-04T11:47:20.633Z,99492.44
2023-08-04T11:50:27.804Z,99493.25
2023-08-04T11:53:30.427Z,99492.28
2023-08-04T11:56:39.720Z,99490.59
2023-08-04T11:59:49.368Z,99492.13
2023-08-04T12:02:59.370Z,99498.41
2023-08-04T12:06:02.651Z,99502.94
2023-08-04T12:09:05.387Z,99498.22
2023-08-04T12:12:08.746Z,99493.81
2023-08-04T12:15:11.596Z,99496.38
2023-08-04T12:18:28.172Z,99487.41
2023-08-04T12:21:30.769Z,99493.91
2023-08-04T12:24:33.659Z,99493.06
2023-08-04T12:27:36.739Z,99493.75
2023-08-04T12:30:39.792Z,99490.84
2023-08-04T12:33:42.374Z,99474.16
2023-08-04T12:36:45.721Z,99480.13
2023-08-04T12:39:48.539Z,99475.84
2023-08-04T12:42:52.274Z,99477.66
2023-08-04T12:45:54.840Z,99479.47
2023-08-04T12:48:58.200Z,99470.75
2023-08-04T12:52:00.753Z,99471.56
2023-08-04T12:55:05.258Z,99467.87
2023-08-04T12:58:07.706Z,99471.34
2023-08-04T13:01:11.179Z,99470.34
2023-08-04T13:04:13.748Z,99471.81
2023-08-04T13:07:16.716Z,99462.06
2023-08-04T13:10:19.179Z,99460.09
2023-08-04T13:13:21.950Z,99457.91
2023-08-04T13:16:24.458Z,99454.69
2023-08-04T13:19:27.285Z,99458.28
2023-08-04T13:22:29.788Z,99452.37
2023-08-04T13:25:40.020Z,99454.28
2023-08-04T13:28:43.607Z,99453.38
2023-08-04T13:31:49.529Z,99453.28
2023-08-04T13:34:52.278Z,99455.88
2023-08-04T13:37:55.264Z,99464.47
2023-08-04T13:40:59.017Z,99458.59
2023-08-04T13:44:01.964Z,99454.09
2023-08-04T13:47:04.740Z,99447.31
2023-08-04T13:50:07.799Z,99453.13
2023-08-04T13:53:10.811Z,99454.69
2023-08-04T13:56:13.672Z,99451.13
2023-08-04T13:59:16.263Z,99449.38
2023-08-04T14:02:19.173Z,99445.00
2023-08-04T14:05:22.049Z,99446.81
2023-08-04T14:08:24.791Z,99441.00
2023-08-04T14:11:27.699Z,99435.91
2023-08-04T14:14:30.278Z,99439.19
2023-08-04T14:17:33.144Z,99432.25
2023-08-04T14:20:35.767Z,99434.75
2023-08-04T14:23:38.672Z,99434.59
2023-08-04T14:26:41.146Z,99421.75
2023-08-04T14:29:45.707Z,99416.56
2023-08-04T14:32:48.324Z,99420.03
2023-08-04T14:35:51.187Z,99407.84
2023-08-04T14:38:53.932Z,99411.47
2023-08-04T14:41:56.795Z,99409.75
2023-08-04T14:44:59.300Z,99402.84
2023-08-04T14:48:02.318Z,99400.72
2023-08-04T14:51:09.856Z,99405.06
2023-08-04T14:54:12.679Z,99390.66
2023-08-04T14:57:15.315Z,99393.66
2023-08-04T15:00:18.207Z,99403.59
2023-08-04T15:03:21.086Z,99397.25
2023-08-04T15:06:24.052Z,99390.22
2023-08-04T15:09:27.038Z,99392.59
2023-08-04T15:12:29.867Z,99402.47
2023-08-04T15:15:33.949Z,99405.19
2023-08-04T15:18:37.386Z,99402.69
2023-08-04T15:21:39.878Z,99397.34
2023-08-04T15:24:45.131Z,99390.13
2023-08-04T15:27:47.667Z,99394.72
2023-08-04T15:30:50.615Z,99390.34
2023-08-04T15:33:53.378Z,99385.72
2023-08-04T15:36:56.117Z,99379.59
2023-08-04T15:39:58.811Z,99375.28
2023-08-04T15:43:01.705Z,99374.94
2023-08-04T15:46:04.960Z,99380.00
2023-08-04T15:49:07.942Z,99387.19
2023-08-04T15:52:10.625Z,99386.78
2023-08-04T15:55:14.009Z,99390.03
2023-08-04T15:58:16.591Z,99380.62
2023-08-04T16:01:19.391Z,99385.44
2023-08-04T16:04:24.342Z,99379.91
2023-08-04T16:07:26.911Z,99376.63
2023-08-04T16:10:31.556Z,99376.47
2023-08-04T16:13:34.085Z,99387.28
2023-08-04T16:16:36.885Z,99379.47
2023-08-04T16:19:39.484Z,99376.09
2023-08-04T16:22:42.208Z,99376.25
2023-08-04T16:25:44.817Z,99364.09
2023-08-04T16:28:47.602Z,99364.38
2023-08-04T16:31:50.317Z,99349.38
2023-08-04T16:34:53.216Z,99354.22
2023-08-04T16:37:55.808Z,99357.69
2023-08-04T16:40:58.939Z,99375.53
2023-08-04T16:44:01.531Z,99362.13
2023-08-04T16:47:04.514Z,99364.84
2023-08-04T16:50:07.123Z,99365.66
2023-08-04T16:53:09.959Z,99361.34
2023-08-04T16:56:12.509Z,99355.22
2023-08-04T16:59:15.222Z,99360.66
2023-08-04T17:02:17.737Z,99367.34
2023-08-04T17:05:21.114Z,99361.09
2023-08-04T17:08:23.787Z,99368.19
2023-08-04T17:11:26.621Z,99359.63
2023-08-04T17:14:29.110Z,99371.59
2023-08-04T17:17:33.031Z,99362.38
2023-08-04T17:20:35.447Z,99368.00
2023-08-04T17:23:38.503Z,99373.12
2023-08-04T17:26:41.189Z,99376.53
2023-08-04T17:29:44.273Z,99377.25
2023-08-04T17:32:47.959Z,99375.50
2023-08-04T17:35:50.750Z,99380.75
2023-08-04T17:38:53.181Z,99375.00
2023-08-04T17:41:55.977Z,99379.22
2023-08-04T17:44:58.344Z,99369.34
2023-08-04T17:48:01.097Z,99383.87
2023-08-04T17:51:03.880Z,99393.72
2023-08-04T17:54:06.685Z,99396.63
2023-08-04T17:57:09.101Z,99398.13
2023-08-04T18:00:12.346Z,99395.06
2023-08-04T18:03:14.751Z,99410.59
2023-08-04T18:06:17.984Z,99413.50
2023-08-04T18:09:20.454Z,99401.03
2023-08-04T18:12:23.165Z,99417.16
2023-08-04T18:15:26.199Z,99415.03
2023-08-04T18:18:29.111Z,99412.56
2023-08-04T18:21:31.564Z,99416.97
2023-08-04T18:24:34.334Z,99416.59
2023-08-04T18:27:37.020Z,99418.41
2023-08-04T18:30:39.974Z,99419.63
2023-08-04T18:33:42.650Z,99417.81
2023-08-04T18:36:45.864Z,99414.41
2023-08-04T18:39:48.260Z,99416.19
2023-08-04T18:42:50.965Z,99415.94
2023-08-04T18:45:57.263Z,99409.88
2023-08-04T18:48:59.997Z,99395.19
2023-08-04T18:52:02.499Z,99381.59
2023-08-04T18:55:06.007Z,99389.03
2023-08-04T18:58:09.691Z,99393.34
2023-08-04T19:01:12.481Z,99391.78
2023-08-04T19:04:14.897Z,99399.03
2023-08-04T19:07:17.687Z,99396.63
2023-08-04T19:10:20.162Z,99412.81
2023-08-04T19:13:23.074Z,99432.03
2023-08-04T19:16:25.514Z,99436.53
2023-08-04T19:19:28.318Z,99432.31
2023-08-04T19:22:30.732Z,99425.84
2023-08-04T19:25:33.599Z,99417.44
2023-08-04T19:28:36.080Z,99412.59
2023-08-04T19:31:38.813Z,99413.84
2023-08-04T19:34:41.450Z,99408.88
2023-08-04T19:37:44.342Z,99414.44
2023-08-04T19:40:54.554Z,99410.34
2023-08-04T19:43:57.341Z,99404.97
2023-08-04T19:46:59.752Z,99401.78
2023-08-04T19:50:02.516Z,99400.66
2023-08-04T19:53:05.041Z,99375.53
2023-08-04T19:56:10.152Z,99368.94
2023-08-04T19:59:13.288Z,99363.25
2023-08-04T20:02:16.141Z,99356.81
2023-08-04T20:05:21.934Z,99334.62
2023-08-04T20:08:24.437Z,99321.72
2023-08-04T20:11:27.300Z,99313.97
2023-08-04T20:14:30.033Z,99321.25
2023-08-04T20:17:34.481Z,99320.81
2023-08-04T20:20:36.996Z,99321.69
2023-08-04T20:23:40.201Z,99306.97
2023-08-04T20:26:42.790Z,99303.88
2023-08-04T20:29:45.602Z,99311.47
2023-08-04T20:32:48.139Z,99321.66
2023-08-04T20:35:55.831Z,99306.84
2023-08-04T20:38:58.416Z,99320.63
2023-08-04T20:42:01.226Z,99325.00
2023-08-04T20:45:04.147Z,99316.72
2023-08-04T20:48:10.207Z,99322.28
2023-08-04T20:51:14.644Z,99305.59
2023-08-04T20:54:17.516Z,99303.88
2023-08-04T20:57:20.063Z,99302.81
2023-08-04T21:00:22.874Z,99294.63
2023-08-04T21:03:28.721Z,99278.41
2023-08-04T21:06:31.497Z,99267.00
2023-08-04T21:09:33.999Z,99257.31
2023-08-04T21:12:39.170Z,99256.22
2023-08-04T21:15:41.869Z,99260.53
2023-08-04T21:18:44.642Z,99252.06
2023-08-04T21:21:47.116Z,99245.66
2023-08-04T21:24:50.383Z,99223.19
2023-08-04T21:27:53.262Z,99213.66
2023-08-04T21:30:56.472Z,99217.16
2023-08-04T21:33:58.925Z,99208.41
2023-08-04T21:37:01.698Z,99207.91
2023-08-04T21:40:04.442Z,99204.66
2023-08-04T21:43:07.173Z,99204.22
2023-08-04T21:46:11.448Z,99201.66
2023-08-04T21:49:17.897Z,99184.31
2023-08-04T21:52:20.628Z,99185.19
2023-08-04T21:55:23.402Z,99179.59
2023-08-04T21:58:25.913Z,99182.50
2023-08-04T22:01:28.860Z,99174.72
2023-08-04T22:04:31.730Z,99184.69
2023-08-04T22:07:34.145Z,99177.53
2023-08-04T22:10:37.277Z,99183.84
2023-08-04T22:13:41.684Z,99171.38
2023-08-04T22:16:44.958Z,99161.09
2023-08-04T22:19:47.541Z,99153.38
2023-08-04T22:22:50.288Z,99150.47
2023-08-04T22:25:59.936Z,99146.19
2023-08-04T22:29:02.705Z,99128.75
2023-08-04T22:32:05.863Z,99116.87
2023-08-04T22:35:09.006Z,99117.34
2023-08-04T22:38:11.478Z,99123.50
2023-08-04T22:41:14.389Z,99125.13
2023-08-04T22:44:16.871Z,99129.12
2023-08-04T22:47:19.862Z,99130.97
2023-08-04T22:50:22.385Z,99137.34
2023-08-04T22:53:25.276Z,99162.69
2023-08-04T22:56:28.245Z,99177.34
2023-08-04T22:59:31.070Z,99101.44
2023-08-04T23:02:33.574Z,99106.78
2023-08-04T23:05:38.424Z,99075.88
2023-08-04T23:08:40.894Z,99056.69
2023-08-04T23:11:45.042Z,99037.91
2023-08-04T23:14:49.088Z,99006.12
2023-08-04T23:17:51.830Z,98986.13
2023-08-04T23:20:54.321Z,98994.84
2023-08-04T23:23:57.129Z,98974.78
2023-08-04T23:26:59.600Z,98938.72
2023-08-04T23:30:02.329Z,98909.22
2023-08-04T23:33:05.119Z,98894.00
2023-08-04T23:36:08.050Z,98892.53
2023-08-04T23:39:11.599Z,98910.47
2023-08-04T23:42:14.412Z,99163.25
2023-08-04T23:45:16.875Z,99233.31
2023-08-04T23:48:19.871Z,99197.84
2023-08-04T23:51:22.515Z,99260.00
2023-08-04T23:54:25.495Z,99312.91
2023-08-04T23:57:27.915Z,99291.09
